createdAt,value
2022-10-31T00:01:32.889Z,17.52
2022-10-31T00:04:01.476Z,17.45
2022-10-31T00:06:30.733Z,17.45
2022-10-31T00:09:01.691Z,17.47
2022-10-31T00:11:31.035Z,17.49
2022-10-31T00:14:01.189Z,17.53
2022-10-31T00:16:30.844Z,17.62
2022-10-31T00:19:01.320Z,17.64
2022-10-31T00:21:30.162Z,17.58
2022-10-31T00:23:59.434Z,17.55
2022-10-31T00:26:29.853Z,17.58
2022-10-31T00:28:59.208Z,17.60
2022-10-31T00:31:31.304Z,17.63
2022-10-31T00:34:00.277Z,17.59
2022-10-31T00:36:29.155Z,17.57
2022-10-31T00:38:57.615Z,17.54
2022-10-31T00:41:26.438Z,17.51
2022-10-31T00:43:54.847Z,17.43
2022-10-31T00:46:23.672Z,17.42
2022-10-31T00:48:54.329Z,17.44
2022-10-31T00:51:23.276Z,17.44
2022-10-31T00:53:51.639Z,17.46
2022-10-31T00:56:20.260Z,17.48
2022-10-31T00:58:48.644Z,17.49
2022-10-31T01:01:17.683Z,17.45
2022-10-31T01:03:46.962Z,17.38
2022-10-31T01:06:17.027Z,17.24
2022-10-31T01:08:45.575Z,17.22
2022-10-31T01:11:19.761Z,17.20
2022-10-31T01:13:49.192Z,17.21
2022-10-31T01:16:21.402Z,17.27
2022-10-31T01:18:52.281Z,17.25
2022-10-31T01:21:25.791Z,17.15
2022-10-31T01:23:56.211Z,17.07
2022-10-31T01:26:26.625Z,17.04
2022-10-31T01:28:57.658Z,16.89
2022-10-31T01:31:28.875Z,16.94
2022-10-31T01:33:57.626Z,16.98
2022-10-31T01:36:29.478Z,17.07
2022-10-31T01:38:59.484Z,17.08
2022-10-31T01:41:30.279Z,17.02
2022-10-31T01:44:00.833Z,16.99
2022-10-31T01:46:33.260Z,16.91
2022-10-31T01:49:04.163Z,16.83
2022-10-31T01:51:36.991Z,16.81
2022-10-31T01:54:10.107Z,16.70
2022-10-31T01:56:43.403Z,16.60
2022-10-31T01:59:18.482Z,16.53
2022-10-31T02:01:48.615Z,16.54
2022-10-31T02:04:17.986Z,16.57
2022-10-31T02:06:53.318Z,16.55
2022-10-31T02:09:24.421Z,16.52
2022-10-31T02:11:56.599Z,16.55
2022-10-31T02:14:27.561Z,16.62
2022-10-31T02:16:56.813Z,16.69
2022-10-31T02:19:36.336Z,16.77
2022-10-31T02:22:16.491Z,16.82
2022-10-31T02:25:01.690Z,16.87
2022-10-31T02:27:58.985Z,16.87
2022-10-31T02:30:39.607Z,16.86
2022-10-31T02:33:22.985Z,16.92
2022-10-31T02:36:02.607Z,16.86
2022-10-31T02:38:44.060Z,16.90
2022-10-31T02:41:25.587Z,16.80
2022-10-31T02:44:05.392Z,16.79
2022-10-31T02:46:40.265Z,16.65
2022-10-31T02:49:18.655Z,16.45
2022-10-31T02:51:48.056Z,16.49
2022-10-31T02:54:24.511Z,16.57
2022-10-31T02:57:00.777Z,16.54
2022-10-31T02:59:32.383Z,16.55
2022-10-31T03:02:16.134Z,16.65
2022-10-31T03:05:07.074Z,16.66
2022-10-31T03:07:43.384Z,16.65
2022-10-31T03:10:22.328Z,16.68
2022-10-31T03:13:02.260Z,16.67
2022-10-31T03:15:34.809Z,16.62
2022-10-31T03:18:08.789Z,16.68
2022-10-31T03:20:43.237Z,16.70
2022-10-31T03:23:15.982Z,16.67
2022-10-31T03:25:47.239Z,16.67
2022-10-31T03:28:21.001Z,16.62
2022-10-31T03:30:52.749Z,16.24
2022-10-31T03:33:28.793Z,16.20
2022-10-31T03:36:05.015Z,16.29
2022-10-31T03:38:35.962Z,16.30
2022-10-31T03:41:11.773Z,16.39
2022-10-31T03:43:48.477Z,16.42
2022-10-31T03:46:17.216Z,16.46
2022-10-31T03:48:45.959Z,16.51
2022-10-31T03:51:22.074Z,16.48
2022-10-31T03:53:58.651Z,16.52
2022-10-31T03:56:36.723Z,16.50
2022-10-31T03:59:10.212Z,16.41
2022-10-31T04:01:45.717Z,16.41
2022-10-31T04:04:15.583Z,16.42
2022-10-31T04:06:48.599Z,16.48
2022-10-31T04:09:18.606Z,16.48
2022-10-31T04:11:50.874Z,16.48
2022-10-31T04:14:50.033Z,16.46
2022-10-31T04:17:22.165Z,16.44
2022-10-31T04:19:51.043Z,16.42
2022-10-31T04:22:21.896Z,16.45
2022-10-31T04:24:50.226Z,16.49
2022-10-31T04:27:20.246Z,16.47
2022-10-31T04:29:50.850Z,16.45
2022-10-31T04:32:20.932Z,16.48
2022-10-31T04:34:49.367Z,16.52
2022-10-31T04:37:17.971Z,16.54
2022-10-31T04:39:48.136Z,16.56
2022-10-31T04:42:37.035Z,16.57
2022-10-31T04:45:08.419Z,16.54
2022-10-31T04:47:38.390Z,16.55
2022-10-31T04:50:08.269Z,16.53
2022-10-31T04:52:41.223Z,16.53
2022-10-31T04:55:13.228Z,16.56
2022-10-31T04:58:01.089Z,16.55
2022-10-31T05:00:29.992Z,16.53
2022-10-31T05:03:00.785Z,16.50
2022-10-31T05:05:32.177Z,16.47
2022-10-31T05:08:03.266Z,16.44
2022-10-31T05:10:34.811Z,16.44
2022-10-31T05:13:06.432Z,16.36
2022-10-31T05:15:51.328Z,16.37
2022-10-31T05:18:39.228Z,16.38
2022-10-31T05:21:26.226Z,16.41
2022-10-31T05:23:59.656Z,16.45
2022-10-31T05:26:30.046Z,16.40
2022-10-31T05:28:58.834Z,16.33
2022-10-31T05:31:27.735Z,16.31
2022-10-31T05:33:56.717Z,16.28
2022-10-31T05:36:43.683Z,16.23
2022-10-31T05:39:15.286Z,16.18
2022-10-31T05:41:49.111Z,16.12
2022-10-31T05:44:22.683Z,16.10
2022-10-31T05:47:09.434Z,16.04
2022-10-31T05:49:58.262Z,15.99
2022-10-31T05:52:57.589Z,16.06
2022-10-31T05:55:33.834Z,16.02
2022-10-31T05:58:20.331Z,16.11
2022-10-31T06:01:00.905Z,16.09
2022-10-31T06:03:29.310Z,16.02
2022-10-31T06:05:59.498Z,16.02
2022-10-31T06:08:48.172Z,16.07
2022-10-31T06:11:21.548Z,16.20
2022-10-31T06:14:03.991Z,16.16
2022-10-31T06:16:54.049Z,16.16
2022-10-31T06:19:40.356Z,16.14
2022-10-31T06:22:13.323Z,16.24
2022-10-31T06:24:41.915Z,16.22
2022-10-31T06:27:23.519Z,16.26
2022-10-31T06:29:53.768Z,16.30
2022-10-31T06:32:34.092Z,16.23
2022-10-31T06:35:03.452Z,16.36
2022-10-31T06:37:32.164Z,16.44
2022-10-31T06:40:08.334Z,16.56
2022-10-31T06:43:01.362Z,16.74
2022-10-31T06:45:32.551Z,16.72
2022-10-31T06:48:21.972Z,16.82
2022-10-31T06:51:20.037Z,16.84
2022-10-31T06:53:51.704Z,16.50
2022-10-31T06:56:20.796Z,16.69
2022-10-31T06:58:53.714Z,16.55
2022-10-31T07:01:37.737Z,16.69
2022-10-31T07:04:06.760Z,16.80
2022-10-31T07:06:37.454Z,16.97
2022-10-31T07:09:06.843Z,17.04
2022-10-31T07:11:35.849Z,17.15
2022-10-31T07:14:04.856Z,17.30
2022-10-31T07:16:33.492Z,17.37
2022-10-31T07:19:08.548Z,17.43
2022-10-31T07:21:37.145Z,17.49
2022-10-31T07:24:07.325Z,17.57
2022-10-31T07:26:43.305Z,17.61
2022-10-31T07:29:12.792Z,17.69
2022-10-31T07:31:41.422Z,17.73
2022-10-31T07:34:20.201Z,17.78
2022-10-31T07:37:08.168Z,17.85
2022-10-31T07:39:39.065Z,17.87
2022-10-31T07:42:09.291Z,17.97
2022-10-31T07:44:41.046Z,18.06
2022-10-31T07:47:28.586Z,18.10
2022-10-31T07:50:12.327Z,16.75
2022-10-31T07:53:03.067Z,16.51
2022-10-31T07:55:46.648Z,16.41
2022-10-31T07:58:18.181Z,15.90
2022-10-31T08:00:49.397Z,15.77
2022-10-31T08:03:28.349Z,15.98
2022-10-31T08:06:14.158Z,16.08
2022-10-31T08:09:01.426Z,16.64
2022-10-31T08:11:30.373Z,17.02
2022-10-31T08:13:59.775Z,17.30
2022-10-31T08:16:29.697Z,17.56
2022-10-31T08:19:02.715Z,17.82
2022-10-31T08:21:35.930Z,18.06
2022-10-31T08:24:04.680Z,18.20
2022-10-31T08:26:34.901Z,18.40
2022-10-31T08:29:05.032Z,18.61
2022-10-31T08:31:40.327Z,18.67
2022-10-31T08:34:29.935Z,18.87
2022-10-31T08:37:20.931Z,19.02
2022-10-31T08:39:55.742Z,19.19
2022-10-31T08:42:25.393Z,19.23
2022-10-31T08:44:54.325Z,18.96
2022-10-31T08:47:24.987Z,18.53
2022-10-31T08:49:53.657Z,18.28
2022-10-31T08:53:03.553Z,18.09
2022-10-31T08:55:32.804Z,18.15
2022-10-31T08:58:08.059Z,18.51
2022-10-31T09:00:43.144Z,18.72
2022-10-31T09:03:23.892Z,19.07
2022-10-31T09:05:56.722Z,19.31
2022-10-31T09:08:27.471Z,19.59
2022-10-31T09:10:58.628Z,19.81
2022-10-31T09:13:47.417Z,19.99
2022-10-31T09:16:44.640Z,20.21
2022-10-31T09:19:20.430Z,20.39
2022-10-31T09:21:49.473Z,20.49
2022-10-31T09:24:19.853Z,20.55
2022-10-31T09:26:48.643Z,20.68
2022-10-31T09:29:21.512Z,20.70
2022-10-31T09:31:58.822Z,20.70
2022-10-31T09:34:30.672Z,20.83
2022-10-31T09:37:07.544Z,20.88
2022-10-31T09:39:39.083Z,20.86
2022-10-31T09:42:40.305Z,21.06
2022-10-31T09:45:24.472Z,21.12
2022-10-31T09:48:12.389Z,21.28
2022-10-31T09:51:05.944Z,21.38
2022-10-31T09:53:45.583Z,21.39
2022-10-31T09:56:23.809Z,21.50
2022-10-31T09:58:59.238Z,21.45
2022-10-31T10:01:41.327Z,21.67
2022-10-31T10:04:27.639Z,21.80
2022-10-31T10:07:07.990Z,21.82
2022-10-31T10:09:45.444Z,21.90
2022-10-31T10:13:03.575Z,22.04
2022-10-31T10:16:03.002Z,22.14
2022-10-31T10:18:45.949Z,21.99
2022-10-31T10:21:28.038Z,22.10
2022-10-31T10:24:12.174Z,22.15
2022-10-31T10:26:45.541Z,22.16
2022-10-31T10:29:31.263Z,22.38
2022-10-31T10:32:04.927Z,22.35
2022-10-31T10:34:39.664Z,22.47
2022-10-31T10:37:23.320Z,22.48
2022-10-31T10:39:57.879Z,22.48
2022-10-31T10:42:47.389Z,22.60
2022-10-31T10:45:38.236Z,22.70
2022-10-31T10:48:16.505Z,22.77
2022-10-31T10:50:51.172Z,22.73
2022-10-31T10:53:39.653Z,22.94
2022-10-31T10:56:17.731Z,23.05
2022-10-31T10:58:47.286Z,23.07
2022-10-31T11:01:18.163Z,23.12
2022-10-31T11:03:46.905Z,23.17
2022-10-31T11:06:23.234Z,23.25
2022-10-31T11:08:52.123Z,23.22
2022-10-31T11:11:32.906Z,23.40
2022-10-31T11:14:05.804Z,23.42
2022-10-31T11:16:41.380Z,23.56
2022-10-31T11:19:21.710Z,23.79
2022-10-31T11:21:52.850Z,23.75
2022-10-31T11:24:26.488Z,23.86
2022-10-31T11:27:15.666Z,24.05
2022-10-31T11:29:44.718Z,23.93
2022-10-31T11:32:24.377Z,24.04
2022-10-31T11:34:57.069Z,23.88
2022-10-31T11:37:28.604Z,23.92
2022-10-31T11:40:00.975Z,24.02
2022-10-31T11:42:37.053Z,24.03
2022-10-31T11:45:16.426Z,24.03
2022-10-31T11:47:52.958Z,24.04
2022-10-31T11:50:28.307Z,24.03
2022-10-31T11:52:57.661Z,24.03
2022-10-31T11:55:38.218Z,24.09
2022-10-31T11:58:20.011Z,24.05
2022-10-31T12:00:53.507Z,24.09
2022-10-31T12:03:36.106Z,24.14
2022-10-31T12:06:09.682Z,24.14
2022-10-31T12:08:40.709Z,24.13
2022-10-31T12:11:20.969Z,24.22
2022-10-31T12:14:03.991Z,24.25
2022-10-31T12:16:43.333Z,24.32
2022-10-31T12:19:24.288Z,24.31
2022-10-31T12:22:10.683Z,24.22
2022-10-31T12:24:54.989Z,24.19
2022-10-31T12:27:35.833Z,24.27
2022-10-31T12:30:16.049Z,24.25
2022-10-31T12:33:06.004Z,24.35
2022-10-31T12:35:46.847Z,24.17
2022-10-31T12:38:30.575Z,24.23
2022-10-31T12:41:14.979Z,24.17
2022-10-31T12:43:49.593Z,24.12
2022-10-31T12:46:28.104Z,24.09
2022-10-31T12:49:25.250Z,24.10
2022-10-31T12:52:12.664Z,24.09
2022-10-31T12:55:04.375Z,24.14
2022-10-31T12:57:38.439Z,23.90
2022-10-31T13:00:15.243Z,23.99
2022-10-31T13:02:52.252Z,23.81
2022-10-31T13:05:29.091Z,23.77
2022-10-31T13:08:08.172Z,23.68
2022-10-31T13:10:42.977Z,23.58
2022-10-31T13:13:20.226Z,23.44
2022-10-31T13:15:54.394Z,23.38
2022-10-31T13:18:30.668Z,23.32
2022-10-31T13:21:04.112Z,23.30
2022-10-31T13:23:57.468Z,23.31
2022-10-31T13:26:39.034Z,23.30
2022-10-31T13:29:18.542Z,23.16
2022-10-31T13:31:47.943Z,23.16
2022-10-31T13:34:29.848Z,23.20
2022-10-31T13:37:07.368Z,23.14
2022-10-31T13:39:56.969Z,23.16
2022-10-31T13:42:41.038Z,23.14
2022-10-31T13:45:15.450Z,23.09
2022-10-31T13:47:56.775Z,23.04
2022-10-31T13:50:30.159Z,23.07
2022-10-31T13:53:14.024Z,23.07
2022-10-31T13:55:46.435Z,22.98
2022-10-31T13:58:27.843Z,22.98
2022-10-31T14:01:18.760Z,22.98
2022-10-31T14:04:07.633Z,22.86
2022-10-31T14:06:47.662Z,22.86
2022-10-31T14:09:35.535Z,22.95
2022-10-31T14:12:12.965Z,22.86
2022-10-31T14:14:49.962Z,22.85
2022-10-31T14:17:23.583Z,22.73
2022-10-31T14:20:25.153Z,22.77
2022-10-31T14:22:54.617Z,22.60
2022-10-31T14:25:34.952Z,22.68
2022-10-31T14:28:22.357Z,22.69
2022-10-31T14:30:56.027Z,22.56
2022-10-31T14:33:31.058Z,22.55
2022-10-31T14:36:18.892Z,22.44
2022-10-31T14:39:01.929Z,22.49
2022-10-31T14:41:47.415Z,22.45
2022-10-31T14:45:10.542Z,22.47
2022-10-31T14:47:49.727Z,22.38
2022-10-31T14:50:36.612Z,22.40
2022-10-31T14:53:08.930Z,22.26
2022-10-31T14:55:45.699Z,22.23
2022-10-31T14:58:20.824Z,22.16
2022-10-31T15:00:54.385Z,22.10
2022-10-31T15:03:30.523Z,22.13
2022-10-31T15:06:04.549Z,21.96
2022-10-31T15:08:40.942Z,21.93
2022-10-31T15:11:14.848Z,21.85
2022-10-31T15:13:48.144Z,21.80
2022-10-31T15:16:22.805Z,21.64
2022-10-31T15:18:55.223Z,21.41
2022-10-31T15:21:26.706Z,21.29
2022-10-31T15:23:57.629Z,21.25
2022-10-31T15:26:32.301Z,21.19
2022-10-31T15:29:03.287Z,21.08
2022-10-31T15:31:34.162Z,21.06
2022-10-31T15:34:07.784Z,21.02
2022-10-31T15:36:38.748Z,20.86
2022-10-31T15:39:07.619Z,20.81
2022-10-31T15:41:41.216Z,20.72
2022-10-31T15:44:17.627Z,20.79
2022-10-31T15:46:56.213Z,20.68
2022-10-31T15:49:38.081Z,20.60
2022-10-31T15:52:17.220Z,20.56
2022-10-31T15:54:50.877Z,20.40
2022-10-31T15:57:20.290Z,20.32
2022-10-31T15:59:50.617Z,20.22
2022-10-31T16:02:24.845Z,20.24
2022-10-31T16:04:56.988Z,20.12
2022-10-31T16:07:26.846Z,20.10
2022-10-31T16:09:57.828Z,19.99
2022-10-31T16:12:31.751Z,20.03
2022-10-31T16:15:00.469Z,20.00
2022-10-31T16:17:31.122Z,19.95
2022-10-31T16:20:04.095Z,19.90
2022-10-31T16:22:36.517Z,19.81
2022-10-31T16:25:11.906Z,19.75
2022-10-31T16:27:42.192Z,19.71
2022-10-31T16:30:33.455Z,19.74
2022-10-31T16:33:04.242Z,19.60
2022-10-31T16:35:36.506Z,19.56
2022-10-31T16:38:09.194Z,19.47
2022-10-31T16:40:57.792Z,19.44
2022-10-31T16:43:27.977Z,19.39
2022-10-31T16:45:57.302Z,19.36
2022-10-31T16:48:29.251Z,19.35
2022-10-31T16:50:58.807Z,19.17
2022-10-31T16:53:28.554Z,19.18
2022-10-31T16:56:00.927Z,19.09
2022-10-31T16:58:34.875Z,19.01
2022-10-31T17:01:06.865Z,19.03
2022-10-31T17:03:38.005Z,18.87
2022-10-31T17:06:07.482Z,18.94
2022-10-31T17:08:36.655Z,18.85
2022-10-31T17:11:05.818Z,18.87
2022-10-31T17:13:36.107Z,18.77
2022-10-31T17:16:05.655Z,18.82
2022-10-31T17:18:34.712Z,18.77
2022-10-31T17:21:07.086Z,18.83
2022-10-31T17:23:36.038Z,18.62
2022-10-31T17:26:04.716Z,18.64
2022-10-31T17:28:33.583Z,18.74
2022-10-31T17:31:02.406Z,18.83
2022-10-31T17:33:31.429Z,18.83
2022-10-31T17:36:00.212Z,18.79
2022-10-31T17:38:31.043Z,18.80
2022-10-31T17:41:03.625Z,18.84
2022-10-31T17:43:35.212Z,18.80
2022-10-31T17:46:04.139Z,18.80
2022-10-31T17:48:35.279Z,18.79
2022-10-31T17:51:10.261Z,18.82
2022-10-31T17:53:43.376Z,18.88
2022-10-31T17:56:16.175Z,18.92
2022-10-31T17:58:47.826Z,18.96
2022-10-31T18:01:18.836Z,19.00
2022-10-31T18:03:48.070Z,19.03
2022-10-31T18:06:17.443Z,19.09
2022-10-31T18:08:47.814Z,19.15
2022-10-31T18:11:20.858Z,19.16
2022-10-31T18:13:55.290Z,19.17
2022-10-31T18:16:25.795Z,19.18
2022-10-31T18:18:59.449Z,19.15
2022-10-31T18:21:28.336Z,19.08
2022-10-31T18:24:00.391Z,19.06
2022-10-31T18:26:29.943Z,19.04
2022-10-31T18:28:59.686Z,19.01
2022-10-31T18:31:29.410Z,18.98
2022-10-31T18:33:58.558Z,19.00
2022-10-31T18:36:28.723Z,19.00
2022-10-31T18:39:00.320Z,18.98
2022-10-31T18:41:29.551Z,18.95
2022-10-31T18:44:00.561Z,18.97
2022-10-31T18:46:30.044Z,18.94
2022-10-31T18:48:59.544Z,18.94
2022-10-31T18:51:29.537Z,18.97
2022-10-31T18:54:02.200Z,18.97
2022-10-31T18:56:52.720Z,18.91
2022-10-31T18:59:22.238Z,18.93
2022-10-31T19:01:51.218Z,18.88
2022-10-31T19:04:20.376Z,18.86
2022-10-31T19:06:53.542Z,18.84
2022-10-31T19:09:30.005Z,18.81
2022-10-31T19:12:26.473Z,18.88
2022-10-31T19:14:57.702Z,18.76
2022-10-31T19:17:26.637Z,18.62
2022-10-31T19:19:56.493Z,18.57
2022-10-31T19:22:25.630Z,18.38
2022-10-31T19:24:56.495Z,18.45
2022-10-31T19:27:26.652Z,18.46
2022-10-31T19:29:56.018Z,18.46
2022-10-31T19:32:24.614Z,18.43
2022-10-31T19:34:54.078Z,18.44
2022-10-31T19:37:22.857Z,18.15
2022-10-31T19:39:52.849Z,17.74
2022-10-31T19:42:24.460Z,17.63
2022-10-31T19:44:53.770Z,17.81
2022-10-31T19:47:22.356Z,17.79
2022-10-31T19:49:51.122Z,17.84
2022-10-31T19:52:20.216Z,17.83
2022-10-31T19:54:49.269Z,17.88
2022-10-31T19:57:20.595Z,18.00
2022-10-31T20:00:00.505Z,18.06
2022-10-31T20:02:29.841Z,18.11
2022-10-31T20:05:00.026Z,18.08
2022-10-31T20:07:28.920Z,18.11
2022-10-31T20:09:58.249Z,18.12
2022-10-31T20:12:27.030Z,18.14
2022-10-31T20:14:57.515Z,18.17
2022-10-31T20:17:26.282Z,18.19
2022-10-31T20:19:55.425Z,18.24
2022-10-31T20:22:24.101Z,18.26
2022-10-31T20:24:54.136Z,18.23
2022-10-31T20:27:23.149Z,18.19
2022-10-31T20:29:51.994Z,18.16
2022-10-31T20:32:24.014Z,18.16
2022-10-31T20:34:53.385Z,18.19
2022-10-31T20:37:22.028Z,18.20
2022-10-31T20:39:54.144Z,18.19
2022-10-31T20:42:25.325Z,18.03
2022-10-31T20:44:54.148Z,18.04
2022-10-31T20:47:25.892Z,18.08
2022-10-31T20:49:55.812Z,18.10
2022-10-31T20:52:24.679Z,18.06
2022-10-31T20:55:13.870Z,18.01
2022-10-31T20:57:42.820Z,18.00
2022-10-31T21:00:12.679Z,17.98
2022-10-31T21:02:43.066Z,18.01
2022-10-31T21:05:13.751Z,18.02
2022-10-31T21:07:42.514Z,18.09
2022-10-31T21:10:15.837Z,18.12
2022-10-31T21:12:45.752Z,18.14
2022-10-31T21:15:15.726Z,18.15
2022-10-31T21:17:45.829Z,18.12
2022-10-31T21:20:14.840Z,18.13
2022-10-31T21:22:45.182Z,18.11
2022-10-31T21:25:14.085Z,18.09
2022-10-31T21:27:42.697Z,18.08
2022-10-31T21:30:11.870Z,18.05
2022-10-31T21:32:40.551Z,18.03
2022-10-31T21:35:11.558Z,18.04
2022-10-31T21:37:40.089Z,18.05
2022-10-31T21:40:10.297Z,18.02
2022-10-31T21:42:59.785Z,18.01
2022-10-31T21:45:29.232Z,17.99
2022-10-31T21:47:57.742Z,17.98
2022-10-31T21:50:27.722Z,17.94
2022-10-31T21:52:56.336Z,17.92
2022-10-31T21:55:24.395Z,17.91
2022-10-31T21:57:53.311Z,17.90
2022-10-31T22:00:22.225Z,17.88
2022-10-31T22:02:57.063Z,17.88
2022-10-31T22:05:28.742Z,17.80
2022-10-31T22:07:58.537Z,17.76
2022-10-31T22:10:27.445Z,17.76
2022-10-31T22:12:56.145Z,17.75
2022-10-31T22:15:25.128Z,17.76
2022-10-31T22:17:53.590Z,17.75
2022-10-31T22:20:24.556Z,17.74
2022-10-31T22:22:54.372Z,17.69
2022-10-31T22:25:23.132Z,17.71
2022-10-31T22:27:53.130Z,17.68
2022-10-31T22:30:21.857Z,17.67
2022-10-31T22:32:50.275Z,17.65
2022-10-31T22:35:19.124Z,17.64
2022-10-31T22:37:47.685Z,17.65
2022-10-31T22:40:18.148Z,17.67
2022-10-31T22:42:46.809Z,17.64
2022-10-31T22:45:16.324Z,17.64
2022-10-31T22:47:45.115Z,17.58
2022-10-31T22:50:13.973Z,17.58
2022-10-31T22:52:42.705Z,17.54
2022-10-31T22:55:11.407Z,17.53
2022-10-31T22:57:41.882Z,17.53
2022-10-31T23:00:11.747Z,17.51
2022-10-31T23:02:40.271Z,17.48
2022-10-31T23:05:09.447Z,17.48
2022-10-31T23:07:38.251Z,17.48
2022-10-31T23:10:07.999Z,17.47
2022-10-31T23:12:54.059Z,17.45
2022-10-31T23:15:24.195Z,17.43
2022-10-31T23:17:52.728Z,17.42
2022-10-31T23:20:21.496Z,17.38
2022-10-31T23:22:50.072Z,17.39
2022-10-31T23:25:36.672Z,17.36
2022-10-31T23:28:05.259Z,17.11
2022-10-31T23:30:35.725Z,17.09
2022-10-31T23:33:04.363Z,17.02
2022-10-31T23:35:33.247Z,16.99
2022-10-31T23:38:02.050Z,17.02
2022-10-31T23:40:30.936Z,17.05
2022-10-31T23:42:59.424Z,17.04
2022-10-31T23:45:28.619Z,17.05
2022-10-31T23:47:58.751Z,17.04
2022-10-31T23:50:27.591Z,17.06
2022-10-31T23:52:56.064Z,17.03
2022-10-31T23:55:25.331Z,17.01
2022-10-31T23:57:53.863Z,17.01
